FW1286 Weather Reports


Display with metric or nautical units.
time (UTC)temp
F
wind
direction
speed
MPH
gust
MPH
rain 1hr
in
rain 24hr
in
rain mn
in
humidity
%
barometer
mb
20210123015736 52 331 9.0 14.0 0.00 0.01 0.01 93 1017.4
20210123014714 53 355 8.0 14.0 0.00 0.01 0.01 92 1017.2
20210123013701 53 323 7.0 12.0 0.00 0.01 0.01 92 1017.0
20210123012630 53 321 7.0 12.0 0.00 0.01 0.01 92 1016.9
20210123011603 53 349 7.0 12.0 0.00 0.01 0.01 92 1016.8
20210123010528 54 344 7.0 12.0 0.00 0.01 0.01 92 1016.7
20210123005448 54 5 7.0 13.0 0.00 0.01 0.01 91 1016.4
20210123004515 54 308 7.0 14.0 0.00 0.01 0.01 91 1016.2
20210123003526 54 343 8.0 14.0 0.00 0.01 0.01 91 1016.0
20210123002517 55 319 8.0 13.0 0.00 0.01 0.01 91 1016.0
20210123001453 55 348 8.0 13.0 0.00 0.01 0.01 90 1015.9
20210123000438 55 320 8.0 15.0 0.00 0.01 0.01 90 1015.8
20210122235432 56 309 7.0 15.0 0.00 0.01 0.01 90 1015.8
20210122234359 57 336 7.0 14.0 0.00 0.01 0.01 89 1015.6
20210122233403 57 336 9.0 15.0 0.00 0.01 0.01 89 1015.5
20210122232356 57 323 10.0 15.0 0.00 0.01 0.01 88 1015.3
20210122231350 58 313 9.0 14.0 0.00 0.01 0.01 87 1015.3
20210122230412 59 342 8.0 13.0 0.00 0.01 0.01 86 1015.0
20210122225359 59 327 8.0 13.0 0.00 0.01 0.01 87 1015.1
20210122224421 59 332 9.0 18.0 0.00 0.01 0.01 87 1014.9
20210122223355 60 346 10.0 18.0 0.00 0.01 0.01 85 1014.9
20210122222352 61 342 10.0 15.0 0.00 0.01 0.01 84 1014.6
20210122221409 62 336 10.0 15.0 0.00 0.01 0.01 83 1014.5
20210122220407 63 349 11.0 15.0 0.00 0.01 0.01 82 1014.4
20210122215347 66 5 8.0 12.0 0.00 0.01 0.01 78 1014.0
20210122214343 66 323 5.0 10.0 0.00 0.01 0.01 76 1013.8
20210122213336 66 285 4.0 9.0 0.00 0.01 0.01 73 1013.7
20210122212319 66 325 5.0 9.0 0.00 0.01 0.01 75 1013.6
20210122211320 65 297 4.0 8.0 0.00 0.01 0.01 77 1013.5
20210122210257 65 319 5.0 9.0 0.00 0.01 0.01 76 1013.5
20210122205313 65 9 3.0 9.0 0.00 0.01 0.01 77 1013.5
20210122204228 65 296 7.0 10.0 0.00 0.01 0.01 76 1013.5
20210122203229 66 256 6.0 10.0 0.00 0.01 0.01 74 1013.6
20210122202222 66 261 5.0 10.0 0.00 0.01 0.01 75 1013.6
20210122201145 66 263 6.0 12.0 0.00 0.01 0.01 75 1013.6
20210122200150 66 255 6.0 12.0 0.00 0.01 0.01 75 1013.7
20210122195130 66 5 7.0 13.0 0.00 0.01 0.01 78 1013.7
20210122194055 65 271 7.0 13.0 0.00 0.01 0.01 80 1013.9
20210122193059 65 298 7.0 13.0 0.00 0.01 0.01 79 1014.0
20210122192112 66 253 6.0 11.0 0.00 0.01 0.01 77 1014.2
20210122191042 66 273 5.0 11.0 0.00 0.01 0.01 79 1014.2
20210122190042 65 335 5.0 9.0 0.00 0.01 0.01 79 1014.1
20210122185031 65 249 5.0 9.0 0.00 0.01 0.01 79 1014.3
20210122183953 65 277 5.0 11.0 0.00 0.01 0.01 79 1014.4
20210122182942 65 279 6.0 11.0 0.00 0.01 0.01 82 1014.5
20210122181905 65 266 5.0 9.0 0.00 0.01 0.01 81 1014.6
20210122180833 64 277 5.0 9.0 0.00 0.01 0.01 81 1014.7
20210122175852 64 297 5.0 9.0 0.00 0.01 0.01 82 1014.8
20210122174818 65 306 5.0 10.0 0.00 0.01 0.01 81 1014.8
20210122173756 64 243 6.0 10.0 0.00 0.01 0.01 82 1015.2
20210122172733 64 255 5.0 10.0 0.00 0.01 0.01 84 1015.1
20210122171758 64 257 4.0 10.0 0.00 0.01 0.01 84 1015.2
20210122170803 63 215 5.0 8.0 0.00 0.01 0.01 84 1015.4
20210122165804 63 215 5.0 9.0 0.00 0.01 0.01 85 1015.4
20210122164819 63 280 5.0 9.0 0.00 0.01 0.01 85 1015.5
20210122163808 63 186 4.0 9.0 0.00 0.01 0.01 86 1015.5
20210122162749 63 245 4.0 8.0 0.00 0.01 0.01 86 1015.3
20210122161746 63 248 4.0 7.0 0.00 0.01 0.01 88 1015.3
20210122160729 62 229 4.0 7.0 0.00 0.01 0.01 89 1015.4
20210122155654 61 218 3.0 6.0 0.00 0.01 0.01 91 1015.2
20210122154650 60 194 3.0 6.0 0.00 0.01 0.01 93 1014.9
20210122153620 60 153 0.0 2.0 0.00 0.01 0.01 94 1015.0
20210122152605 59 138 0.0 0.0 0.00 0.01 0.01 95 1014.8
20210122151614 58 138 0.0 0.0 0.00 0.01 0.01 95 1014.7
20210122150545 58 175 0.0 3.0 0.00 0.01 0.01 96 1014.6
20210122145522 57 175 0.0 3.0 0.00 0.01 0.01 96 1014.5
20210122144449 57 175 0.0 3.0 0.00 0.01 0.01 96 1014.5
20210122143446 57 175 0.0 5.0 0.00 0.01 0.01 96 1014.5
20210122142510 56 176 2.0 5.0 0.00 0.01 0.01 96 1014.4
20210122141510 56 125 0.0 3.0 0.00 0.01 0.01 96 1014.1
20210122140522 55 125 1.0 4.0 0.00 0.01 0.01 96 1014.2
20210122135521 55 192 0.0 0.0 0.00 0.01 0.01 96 1014.3
20210122134457 55 192 0.0 0.0 0.00 0.01 0.01 96 1014.2
20210122133436 55 192 0.0 0.0 0.00 0.01 0.01 95 1014.1
20210122132431 55 192 0.0 0.0 0.00 0.01 0.01 95 1014.1
20210122131358 55 192 0.0 0.0 0.00 0.01 0.01 95 1013.9
20210122130420 55 192 0.0 0.0 0.00 0.01 0.01 95 1014.2
20210122125354 55 192 0.0 0.0 0.00 0.01 0.01 95 1013.9
20210122124423 55 192 3.0 6.0 0.00 0.01 0.01 95 1013.6
20210122123351 56 145 1.0 4.0 0.00 0.01 0.01 95 1012.7
20210122122354 55 173 0.0 2.0 0.00 0.01 0.01 95 1012.7
20210122121342 55 173 0.0 4.0 0.00 0.01 0.01 95 1013.4
20210122120308 55 155 0.0 0.0 0.00 0.01 0.01 95 1012.8
20210122115320 55 119 0.0 0.0 0.00 0.01 0.01 94 1012.5
20210122114307 56 121 0.0 0.0 0.00 0.00 0.00 95 1012.0
20210122113240 56 119 0.0 0.0 0.00 0.00 0.00 95 1012.0
20210122112222 55 119 0.0 1.0 0.00 0.00 0.00 95 1011.9
20210122111239 55 215 0.0 0.0 0.00 0.00 0.00 95 1012.1
20210122110211 55 215 0.0 3.0 0.00 0.00 0.00 95 1013.0
20210122105155 55 248 0.0 0.0 0.00 0.00 0.00 95 1013.0
20210122104120 55 248 1.0 0.0 0.00 0.00 0.00 95 1012.6
20210122103117 55 242 4.0 9.0 0.00 0.00 0.00 94 1013.0
20210122102055 55 115 1.0 0.0 0.00 0.00 0.00 95 1011.5
20210122101053 55 49 1.0 4.0 0.00 0.00 0.00 94 1011.6
20210122100036 56 122 0.0 0.0 0.00 0.00 0.00 94 1012.0
20210122095027 56 101 2.0 6.0 0.00 0.00 0.00 94 1012.0
20210122094026 55 178 1.0 6.0 0.00 0.00 0.00 94 1012.6
20210122093020 55 184 2.0 0.0 0.00 0.00 0.00 94 1013.1
20210122092025 55 121 2.0 6.0 0.00 0.00 0.00 94 1012.8
20210122091022 55 171 0.0 0.0 0.00 0.00 0.00 94 1013.8
20210122085950 55 171 0.0 0.0 0.00 0.00 0.00 94 1013.9
20210122084951 55 171 0.0 0.0 0.00 0.00 0.00 94 1013.8
20210122083928 55 172 0.0 4.0 0.00 0.00 0.00 93 1013.8
20210122082948 55 150 0.0 0.0 0.00 0.00 0.00 93 1013.8
20210122082017 55 186 0.0 0.0 0.00 0.00 0.00 94 1013.9
20210122081024 55 231 0.0 3.0 0.00 0.00 0.00 93 1014.1
20210122080028 55 232 1.0 3.0 0.00 0.00 0.00 93 1014.2
20210122074954 55 246 0.0 2.0 0.00 0.00 0.00 93 1014.0
20210122073934 55 249 0.0 0.0 0.00 0.00 0.00 93 1013.9
20210122072932 55 249 0.0 0.0 0.00 0.00 0.00 93 1013.5
20210122071924 55 249 0.0 0.0 0.00 0.00 0.00 93 1013.7
20210122070920 56 249 0.0 4.0 0.00 0.00 0.00 92 1014.1
20210122065917 56 228 0.0 0.0 0.00 0.00 0.00 92 1013.9
20210122064937 56 228 0.0 0.0 0.00 0.00 0.00 92 1013.5
20210122063917 55 269 0.0 0.0 0.00 0.00 0.00 92 1013.6
20210122062850 55 269 0.0 0.0 0.00 0.00 0.00 92 1013.8
20210122061847 55 269 0.0 0.0 0.00 0.00 0.00 92 1013.8
20210122060843 55 269 0.0 0.0 0.00 0.00 0.00 92 1013.9
20210122055837 56 269 0.0 4.0 0.00 0.00 0.00 92 1013.7
20210122054846 56 271 0.0 0.0 0.00 0.00 0.00 91 1013.9
20210122053902 56 271 1.0 3.0 0.00 0.00 0.00 91 1014.1
20210122052859 56 270 0.0 3.0 0.00 0.00 0.00 91 1013.9
20210122051909 56 270 0.0 2.0 0.00 0.00 0.00 91 1013.6
20210122050926 56 136 0.0 0.0 0.00 0.00 0.00 90 1013.5
20210122045858 57 136 0.0 0.0 0.00 0.00 0.00 89 1013.4
20210122044915 57 136 1.0 3.0 0.00 0.00 0.00 89 1013.4
20210122043844 58 274 0.0 0.0 0.00 0.00 0.00 89 1013.5
20210122042827 58 273 0.0 0.0 0.00 0.00 0.00 88 1013.8
20210122041822 58 273 0.0 0.0 0.00 0.00 0.00 89 1013.7
20210122040838 58 274 0.0 1.0 0.00 0.00 0.00 89 1013.8
20210122035812 58 273 0.0 0.0 0.00 0.00 0.00 89 1013.6
20210122034820 58 273 0.0 0.0 0.00 0.00 0.00 88 1013.6
20210122033746 58 273 0.0 0.0 0.00 0.00 0.00 88 1013.6
20210122032728 58 274 2.0 8.0 0.00 0.00 0.00 89 1013.4
20210122031654 58 267 4.0 8.0 0.00 0.00 0.00 89 1013.2
20210122030651 58 130 2.0 6.0 0.00 0.00 0.00 89 1012.7
20210122025633 58 121 2.0 5.0 0.00 0.00 0.00 89 1012.7
20210122024612 58 123 0.0 3.0 0.00 0.00 0.00 89 1012.8
20210122023554 58 138 0.0 0.0 0.00 0.00 0.00 89 1012.9
20210122022558 58 124 1.0 5.0 0.00 0.00 0.00 89 1012.8
20210122021556 58 107 1.0 4.0 0.00 0.01 0.00 87 1012.7
20210122020533 58 117 1.0 6.0 0.00 0.01 0.00 87 1013.0